Etusivu
METAR-TAF:

METAR-TAF

Lentoasemat :

Fresno, Kalifornia, Yhdysvallat

Leveyspiiri: 36-46-48N, Pituuspiiri: 119-43-10W, korkeus merenpinnasta: 101 m

Tämänhetkinen sää

Tämä raportti tehtiin 17 minuuttia sitten, kello 02.53 UTC
Tuuli 3 kn pohjoisesta
Lämpötila 18°C
Kosteus 34%
Ilmanpaine 1019 hPa
Näkyvyys: 16.1 km
Muutamia pilviä 20000 ft:n korkeudessa

METAR: KFAT 200253Z 01003KT 10SM FEW200 18/02 A3008 RMK AO2 SLP184 T01780017 53008

Aika: 19:10 (03:10 UTC)

Sääennuste

Tämä raportti tehtiin 3 tuntia ja 50 minuuttia sitten, kello 23.20 UTC
Ennuste voimassa 20. päivästä klo 00 UTC - 20. päivään klo 24 UTC
Tuuli 5 kn eri suunnista
Näkyvyys: 10 km
selkeää

TAF: KFAT 192320Z 2000/2024 VRB05KT P6SM SKC

Säähavainnot ja -ennusteet yli 4000 lentoasemalta (METAR- ja TAF-raportit).

Käytössä olevat sääasemat on merkitty karttaan keltaisilla ja punaisilla pisteillä.

Aseta hiiri pisteen päälle nähdäksesi sääaseman nimen.

Klikkaa sitten nähdäksesi säähavainnot ja -ennusteet.

Kartan vaihtaminen: klikkaa mustalla rastilla varustettuja vihreitä pisteitä, niin voit zoomata sisään; viivalla varustettua vihreää pistettä, niin voit zoomata ulos tai vihreitä nuolia, niin pääset viereisille kartoille.


METAR-TAF: